Time;durP1;ratioP1;P1;durP2;ratioP2;P2;SDS_P1;SDS_P2;PMS_P1;PMS_P2;Temp;Humidity;BMP_temperature;BMP_pressure;BME280_temperature;BME280_humidity;BME280_pressure;Samples;Min_cycle;Max_cycle;Signal;HPM_P1;HPM_P2
2021/05/22 00:01:35;;;;;;;3.58;0.45;;;14.00;75.10;;;;;;5017638;28;20097;-71
2021/05/22 00:04:02;;;;;;;5.10;0.70;;;13.90;75.60;;;;;;5017289;28;20437;-71
2021/05/22 00:06:28;;;;;;;2.47;0.52;;;13.90;74.30;;;;;;5017259;28;20030;-71
2021/05/22 00:08:54;;;;;;;2.40;0.80;;;13.90;75.10;;;;;;5017512;28;20068;-71
2021/05/22 00:11:20;;;;;;;3.50;0.70;;;14.00;75.20;;;;;;5017519;28;20327;-71
2021/05/22 00:13:46;;;;;;;2.22;0.70;;;14.10;76.40;;;;;;5017203;28;20029;-71
2021/05/22 00:16:12;;;;;;;1.52;0.70;;;14.10;76.80;;;;;;5016461;28;20038;-71
2021/05/22 00:18:38;;;;;;;2.63;0.40;;;14.20;75.80;;;;;;5017134;28;20022;-71
2021/05/22 00:21:03;;;;;;;2.08;0.57;;;14.20;76.60;;;;;;5017326;28;20034;-71
2021/05/22 00:23:29;;;;;;;1.30;0.52;;;14.20;76.70;;;;;;5017025;28;20323;-71
2021/05/22 00:25:55;;;;;;;2.10;0.60;;;14.10;78.60;;;;;;5017426;28;20037;-71
2021/05/22 00:28:21;;;;;;;3.63;1.60;;;14.00;78.20;;;;;;5016835;28;20057;-71
2021/05/22 00:30:46;;;;;;;3.85;0.75;;;13.90;75.70;;;;;;5017291;28;20028;-71
2021/05/22 00:33:12;;;;;;;4.93;1.10;;;14.00;75.70;;;;;;5017338;28;20048;-71
2021/05/22 00:35:38;;;;;;;2.38;0.50;;;14.00;78.00;;;;;;5017179;28;20022;-71
2021/05/22 00:38:03;;;;;;;1.67;0.68;;;14.00;78.90;;;;;;5016824;28;20304;-71
2021/05/22 00:40:29;;;;;;;3.92;0.70;;;14.00;78.50;;;;;;5016890;28;20114;-71
2021/05/22 00:42:55;;;;;;;2.33;0.73;;;14.00;79.40;;;;;;5017223;28;20023;-71
2021/05/22 00:45:22;;;;;;;1.40;0.50;;;13.90;79.10;;;;;;5016727;28;20411;-71
2021/05/22 00:47:54;;;;;;;1.70;0.63;;;13.90;79.80;;;;;;5017133;28;20030;-71
2021/05/22 00:50:31;;;;;;;6.50;0.80;;;13.90;76.90;;;;;;5017099;28;20030;-71
2021/05/22 00:52:58;;;;;;;2.75;0.70;;;13.90;77.70;;;;;;5016757;28;20105;-71
2021/05/22 00:55:24;;;;;;;3.05;0.45;;;13.90;79.00;;;;;;5017069;28;20053;-71
2021/05/22 00:57:51;;;;;;;4.63;0.85;;;13.90;77.60;;;;;;5016939;28;20022;-71
2021/05/22 01:00:20;;;;;;;1.73;0.60;;;13.90;76.20;;;;;;5016962;28;20318;-71
2021/05/22 01:02:47;;;;;;;2.38;0.80;;;13.90;76.90;;;;;;5016638;28;20026;-71
2021/05/22 01:05:14;;;;;;;3.95;0.70;;;14.00;75.00;;;;;;5016558;28;20461;-71
2021/05/22 01:07:41;;;;;;;3.25;0.70;;;14.00;73.90;;;;;;5016862;28;20354;-71
2021/05/22 01:10:07;;;;;;;3.45;0.60;;;14.10;74.50;;;;;;5016598;28;20030;-71
2021/05/22 01:12:44;;;;;;;4.45;0.70;;;14.10;75.90;;;;;;5016523;28;20022;-71
2021/05/22 01:15:14;;;;;;;2.03;0.60;;;14.00;78.10;;;;;;5016826;28;20362;-71
2021/05/22 01:17:44;;;;;;;1.13;0.65;;;14.00;78.50;;;;;;5016752;28;20022;-71
2021/05/22 01:20:12;;;;;;;2.40;0.80;;;13.90;79.80;;;;;;5017169;28;20149;-71
2021/05/22 01:22:43;;;;;;;3.13;0.80;;;13.70;79.10;;;;;;5016810;28;20156;-71
2021/05/22 01:25:25;;;;;;;4.57;0.93;;;13.70;82.70;;;;;;5016637;28;20041;-71
2021/05/22 01:27:52;;;;;;;4.72;0.65;;;13.50;85.00;;;;;;5018039;28;20073;-71
2021/05/22 01:30:19;;;;;;;2.85;1.13;;;13.20;87.20;;;;;;5019979;28;20351;-71
2021/05/22 01:32:45;;;;;;;2.72;0.85;;;13.00;87.40;;;;;;5020386;28;20026;-71
2021/05/22 01:35:12;;;;;;;5.95;1.23;;;12.80;89.00;;;;;;5020015;28;20061;-71
2021/05/22 01:37:38;;;;;;;3.45;1.30;;;12.70;90.50;;;;;;5019925;28;20030;-72
2021/05/22 01:40:06;;;;;;;3.33;1.38;;;12.60;89.80;;;;;;5020212;28;20026;-71
2021/05/22 01:42:33;;;;;;;4.00;1.40;;;12.60;88.50;;;;;;5020199;28;20073;-71
2021/05/22 01:45:01;;;;;;;2.22;1.20;;;12.70;88.50;;;;;;5019801;28;20030;-71
2021/05/22 01:47:27;;;;;;;3.22;1.38;;;12.80;87.90;;;;;;5019790;28;20029;-71
2021/05/22 01:49:53;;;;;;;4.60;1.58;;;12.90;87.20;;;;;;5020082;28;20104;-71
2021/05/22 01:52:22;;;;;;;2.92;1.40;;;12.80;86.10;;;;;;5019725;28;20034;-71
2021/05/22 01:54:50;;;;;;;4.30;1.58;;;12.80;85.40;;;;;;5019790;28;20037;-71
2021/05/22 01:57:16;;;;;;;4.97;1.60;;;12.90;85.60;;;;;;5019836;28;20097;-71
2021/05/22 01:59:42;;;;;;;5.13;2.10;;;12.90;86.40;;;;;;5019907;28;20029;-71
2021/05/22 02:02:08;;;;;;;3.60;1.50;;;12.80;85.00;;;;;;5019506;28;20450;-71
2021/05/22 02:04:40;;;;;;;2.22;1.60;;;12.80;86.10;;;;;;5019414;28;20029;-71
2021/05/22 02:07:07;;;;;;;2.95;1.63;;;12.80;86.70;;;;;;5019774;28;20342;-71
2021/05/22 02:09:33;;;;;;;2.90;1.67;;;12.80;85.60;;;;;;5019723;28;20064;-71
2021/05/22 02:12:04;;;;;;;2.38;1.40;;;12.70;86.60;;;;;;5019609;28;20044;-71
2021/05/22 02:14:33;;;;;;;5.90;1.50;;;12.80;88.10;;;;;;5019228;28;20045;-71
2021/05/22 02:17:00;;;;;;;3.42;1.55;;;12.60;89.40;;;;;;5019215;28;20032;-71
2021/05/22 02:19:29;;;;;;;3.92;1.90;;;12.50;90.70;;;;;;5019259;28;20405;-71
2021/05/22 02:21:57;;;;;;;5.25;2.15;;;12.40;91.30;;;;;;5019213;28;20480;-71
2021/05/22 02:24:26;;;;;;;3.22;1.45;;;12.40;91.10;;;;;;5019387;28;20081;-71
2021/05/22 02:27:01;;;;;;;3.85;1.55;;;12.30;89.70;;;;;;5019067;28;20422;-71
2021/05/22 02:29:28;;;;;;;3.92;1.70;;;12.40;91.30;;;;;;5019068;28;20050;-71
2021/05/22 02:31:56;;;;;;;4.13;2.17;;;12.50;90.90;;;;;;5019233;28;20050;-71
2021/05/22 02:34:51;;;;;;;3.58;1.50;;;12.50;91.10;;;;;;5018923;28;20042;-71
2021/05/22 02:37:19;;;;;;;1.70;1.15;;;12.50;86.80;;;;;;5018534;28;20029;-71
2021/05/22 02:39:50;;;;;;;3.40;1.50;;;12.50;87.40;;;;;;5018342;28;20022;-71
2021/05/22 02:42:18;;;;;;;2.10;1.33;;;12.40;90.20;;;;;;5019107;28;20076;-71
2021/05/22 02:44:49;;;;;;;4.05;1.38;;;12.30;90.20;;;;;;5018735;28;20544;-71
2021/05/22 02:47:18;;;;;;;3.25;1.00;;;12.30;88.90;;;;;;5019010;28;20326;-71
2021/05/22 02:49:46;;;;;;;3.05;0.93;;;12.40;90.80;;;;;;5018916;28;20033;-71
2021/05/22 02:52:15;;;;;;;4.05;1.10;;;12.40;89.80;;;;;;5018953;28;20346;-71
2021/05/22 02:54:43;;;;;;;2.05;1.00;;;12.40;90.40;;;;;;5018780;28;20407;-71
2021/05/22 02:57:11;;;;;;;4.22;1.10;;;12.40;90.80;;;;;;5018745;28;20040;-71
2021/05/22 02:59:39;;;;;;;2.92;1.15;;;12.50;90.40;;;;;;5018476;28;20030;-71
2021/05/22 03:02:06;;;;;;;2.42;1.13;;;12.50;90.30;;;;;;5018733;28;20029;-71
2021/05/22 03:04:34;;;;;;;3.92;0.80;;;12.40;91.30;;;;;;5018333;28;20030;-71
2021/05/22 03:07:01;;;;;;;3.17;1.10;;;12.20;91.00;;;;;;5018624;28;20041;-71
2021/05/22 03:09:27;;;;;;;2.97;1.02;;;12.20;91.30;;;;;;5018597;28;20045;-71
2021/05/22 03:11:54;;;;;;;3.35;1.00;;;12.30;90.30;;;;;;5018529;28;20029;-71
2021/05/22 03:14:19;;;;;;;2.72;1.20;;;12.40;90.60;;;;;;5018473;28;20037;-71
2021/05/22 03:16:45;;;;;;;2.92;0.93;;;12.40;91.20;;;;;;5018081;28;20358;-71
2021/05/22 03:19:11;;;;;;;1.55;0.82;;;12.50;91.00;;;;;;5018111;28;20026;-71
2021/05/22 03:21:37;;;;;;;2.38;1.33;;;12.60;91.50;;;;;;5018330;28;20083;-71
2021/05/22 03:24:04;;;;;;;5.75;1.00;;;12.50;90.80;;;;;;5017879;28;20477;-71
2021/05/22 03:26:29;;;;;;;4.70;1.10;;;12.50;90.30;;;;;;5018298;28;20072;-71
2021/05/22 03:28:55;;;;;;;4.22;1.10;;;12.50;91.00;;;;;;5017713;28;20342;-72
2021/05/22 03:31:21;;;;;;;3.42;1.20;;;12.30;91.20;;;;;;5018132;28;20132;-71
2021/05/22 03:33:47;;;;;;;2.13;1.10;;;12.30;91.60;;;;;;5018214;28;20097;-71
2021/05/22 03:36:13;;;;;;;7.00;1.13;;;12.30;91.10;;;;;;5017968;28;20037;-71
2021/05/22 03:38:38;;;;;;;1.98;0.98;;;12.30;91.50;;;;;;5017750;28;20022;-71
2021/05/22 03:41:04;;;;;;;2.03;1.20;;;12.40;90.60;;;;;;5017979;28;20159;-71
2021/05/22 03:43:30;;;;;;;2.80;1.35;;;12.50;90.00;;;;;;5017592;28;20427;-71
2021/05/22 03:45:56;;;;;;;4.45;1.30;;;12.50;90.80;;;;;;5017592;28;20493;-71
2021/05/22 03:48:22;;;;;;;5.60;1.40;;;12.40;91.10;;;;;;5017639;28;20122;-71
2021/05/22 03:50:47;;;;;;;2.80;1.08;;;12.50;89.90;;;;;;5017054;28;20104;-71
2021/05/22 03:53:13;;;;;;;4.10;1.92;;;12.50;90.10;;;;;;5017514;28;20080;-71
2021/05/22 03:55:40;;;;;;;4.15;1.30;;;12.50;90.70;;;;;;5017791;28;20030;-71
2021/05/22 03:58:07;;;;;;;3.45;1.35;;;12.50;90.30;;;;;;5017692;28;20393;-71
2021/05/22 04:00:33;;;;;;;2.63;1.20;;;12.60;91.00;;;;;;5017364;28;20033;-71
2021/05/22 04:02:59;;;;;;;5.70;1.35;;;12.60;91.40;;;;;;5017661;28;20024;-71
2021/05/22 04:05:24;;;;;;;2.72;1.30;;;12.70;91.40;;;;;;5017549;28;20030;-71
2021/05/22 04:07:50;;;;;;;4.68;1.35;;;12.70;91.40;;;;;;5017580;28;20030;-71
2021/05/22 04:10:16;;;;;;;3.47;1.30;;;12.70;91.30;;;;;;5017240;28;20038;-71
2021/05/22 04:12:42;;;;;;;3.28;1.20;;;12.80;91.60;;;;;;5017556;28;20022;-71
2021/05/22 04:15:08;;;;;;;5.03;1.30;;;12.90;91.10;;;;;;5017464;28;20355;-71
2021/05/22 04:17:34;;;;;;;2.65;1.60;;;13.00;92.40;;;;;;5017021;28;20460;-71
2021/05/22 04:19:59;;;;;;;6.03;2.38;;;13.00;91.80;;;;;;5017109;28;20037;-71
2021/05/22 04:22:25;;;;;;;6.63;1.60;;;13.00;91.40;;;;;;5017148;28;20014;-71
2021/05/22 04:24:51;;;;;;;4.38;1.50;;;13.00;91.10;;;;;;5017157;28;20044;-71
2021/05/22 04:27:17;;;;;;;6.35;1.30;;;13.10;91.60;;;;;;5017041;28;20109;-71
2021/05/22 04:29:43;;;;;;;3.65;1.70;;;13.10;91.60;;;;;;5016785;28;20073;-71
2021/05/22 04:32:09;;;;;;;4.57;1.58;;;13.10;92.50;;;;;;5016953;28;20030;-71
2021/05/22 04:34:34;;;;;;;7.55;1.40;;;13.00;91.50;;;;;;5016891;28;20026;-71
2021/05/22 04:37:00;;;;;;;5.63;1.30;;;13.00;92.10;;;;;;5017123;28;20110;-71
2021/05/22 04:39:26;;;;;;;2.88;1.10;;;13.00;91.90;;;;;;5016891;28;20022;-71
2021/05/22 04:41:52;;;;;;;2.90;0.80;;;13.10;92.00;;;;;;5016903;28;20076;-71
2021/05/22 04:44:18;;;;;;;5.22;1.08;;;13.10;91.80;;;;;;5016777;28;20365;-71
2021/05/22 04:46:43;;;;;;;3.55;0.85;;;13.00;91.40;;;;;;5016797;28;20068;-71
2021/05/22 04:49:09;;;;;;;3.85;1.05;;;12.90;91.80;;;;;;5016820;28;20034;-71
2021/05/22 04:51:35;;;;;;;3.85;2.53;;;12.80;92.10;;;;;;5016772;28;20022;-71
2021/05/22 04:54:07;;;;;;;6.65;1.42;;;12.90;92.70;;;;;;5016722;28;20054;-71
2021/05/22 04:56:33;;;;;;;9.13;2.30;;;13.00;92.40;;;;;;5016620;28;20116;-71
2021/05/22 04:58:59;;;;;;;2.17;0.93;;;12.90;91.80;;;;;;5017002;28;20026;-71
2021/05/22 05:01:25;;;;;;;3.05;0.77;;;12.90;93.50;;;;;;5017292;28;20022;-71
2021/05/22 05:03:50;;;;;;;2.95;1.00;;;12.90;90.60;;;;;;5020993;28;20029;-71
2021/05/22 05:06:17;;;;;;;2.03;0.85;;;12.90;89.70;;;;;;5020878;28;20022;-71
2021/05/22 05:08:43;;;;;;;3.92;1.00;;;12.80;90.60;;;;;;5020530;28;20026;-71
2021/05/22 05:11:09;;;;;;;5.65;1.27;;;12.80;90.60;;;;;;5020799;28;20096;-71
2021/05/22 05:13:35;;;;;;;3.50;1.10;;;12.80;90.00;;;;;;5020825;28;20033;-71
2021/05/22 05:16:01;;;;;;;4.97;1.20;;;12.80;91.10;;;;;;5020597;28;20418;-71
2021/05/22 05:18:27;;;;;;;5.38;1.85;;;12.90;91.40;;;;;;5020338;28;20022;-71
2021/05/22 05:20:53;;;;;;;2.42;0.82;;;13.00;91.50;;;;;;5020591;28;20022;-71
2021/05/22 05:23:18;;;;;;;2.28;0.88;;;13.10;91.90;;;;;;5020356;28;20414;-71
2021/05/22 05:25:45;;;;;;;3.28;1.00;;;13.20;92.30;;;;;;5020509;28;20030;-71
2021/05/22 05:28:11;;;;;;;3.28;1.55;;;13.20;92.20;;;;;;5020607;28;20060;-72
2021/05/22 05:30:36;;;;;;;2.47;0.88;;;13.10;91.30;;;;;;5020492;28;20026;-71
2021/05/22 05:33:02;;;;;;;2.40;0.90;;;13.00;91.70;;;;;;5020466;28;20032;-71
2021/05/22 05:35:28;;;;;;;1.90;0.90;;;12.90;92.30;;;;;;5020355;28;20460;-71
2021/05/22 05:37:53;;;;;;;5.57;1.10;;;13.00;92.80;;;;;;5020263;28;20472;-71
2021/05/22 05:40:20;;;;;;;3.70;1.17;;;13.00;92.30;;;;;;5019988;28;20414;-71
2021/05/22 05:42:55;;;;;;;2.28;0.90;;;13.00;92.50;;;;;;5019989;28;20025;-71
2021/05/22 05:45:21;;;;;;;2.65;1.33;;;12.90;92.80;;;;;;5020203;28;20026;-71
2021/05/22 05:47:47;;;;;;;2.97;1.02;;;12.70;92.20;;;;;;5020097;28;20041;-71
2021/05/22 05:50:13;;;;;;;3.97;0.90;;;12.60;92.10;;;;;;5019812;28;20026;-71
2021/05/22 05:52:39;;;;;;;5.55;1.02;;;12.50;91.70;;;;;;5020056;28;20030;-71
2021/05/22 05:55:05;;;;;;;3.53;1.08;;;12.50;92.30;;;;;;5019759;28;20299;-71
2021/05/22 05:57:31;;;;;;;3.88;1.25;;;12.50;92.60;;;;;;5019888;28;20113;-71
2021/05/22 05:59:56;;;;;;;2.05;0.80;;;12.50;92.00;;;;;;5019644;28;20347;-71
2021/05/22 06:02:22;;;;;;;6.32;1.67;;;12.60;92.20;;;;;;5019892;28;20040;-71
2021/05/22 06:04:48;;;;;;;6.10;1.25;;;12.70;91.00;;;;;;5019512;28;20052;-71
2021/05/22 06:07:13;;;;;;;5.80;1.40;;;12.80;90.90;;;;;;5019517;28;20053;-71
2021/05/22 06:09:42;;;;;;;3.38;1.15;;;12.80;92.00;;;;;;5019433;28;20076;-71
2021/05/22 06:12:08;;;;;;;5.15;1.20;;;12.90;91.80;;;;;;5019742;28;20058;-71
2021/05/22 06:14:37;;;;;;;3.95;1.40;;;13.00;91.20;;;;;;5018405;28;20032;-71
2021/05/22 06:17:03;;;;;;;5.78;1.20;;;13.00;90.30;;;;;;5019246;28;20112;-71
2021/05/22 06:19:29;;;;;;;5.47;1.30;;;13.10;89.90;;;;;;5019596;28;20213;-71
2021/05/22 06:21:54;;;;;;;6.50;1.30;;;13.10;89.50;;;;;;5019510;28;20044;-71
2021/05/22 06:24:20;;;;;;;5.30;1.52;;;13.20;89.00;;;;;;5019343;28;20076;-71
2021/05/22 06:26:46;;;;;;;10.00;1.55;;;13.20;89.70;;;;;;5019472;28;20490;-71
2021/05/22 06:29:13;;;;;;;6.25;1.27;;;13.20;88.60;;;;;;5019011;28;20084;-72
2021/05/22 06:31:40;;;;;;;4.00;1.23;;;13.30;89.30;;;;;;5018968;28;20041;-71
2021/05/22 06:34:05;;;;;;;5.72;1.48;;;13.20;88.60;;;;;;5019310;28;20026;-71
2021/05/22 06:36:31;;;;;;;5.22;0.90;;;13.10;88.20;;;;;;5019184;28;20022;-71
2021/05/22 06:38:57;;;;;;;6.20;1.13;;;13.10;87.50;;;;;;5018939;28;20174;-71
2021/05/22 06:41:23;;;;;;;6.75;1.20;;;13.00;87.10;;;;;;5019132;28;20029;-71
2021/05/22 06:43:49;;;;;;;11.00;1.67;;;13.00;88.20;;;;;;5018821;28;20182;-71
2021/05/22 06:48:42;;;;;;;8.07;1.75;;;13.00;88.10;;;;;;5018725;28;20030;-71
2021/05/22 06:51:08;;;;;;;4.75;1.20;;;13.00;87.40;;;;;;5018651;28;20046;-71
2021/05/22 06:53:34;;;;;;;3.63;1.10;;;13.00;88.30;;;;;;5018987;28;20173;-71
2021/05/22 06:56:00;;;;;;;5.57;1.25;;;13.00;87.90;;;;;;5018894;28;20446;-71
2021/05/22 06:58:26;;;;;;;5.20;1.10;;;12.90;89.00;;;;;;5018443;28;20073;-71
2021/05/22 07:00:52;;;;;;;4.65;1.13;;;12.90;88.80;;;;;;5018454;28;20053;-71
2021/05/22 07:03:17;;;;;;;5.75;1.33;;;13.00;88.90;;;;;;5018780;28;20030;-71
2021/05/22 07:05:43;;;;;;;3.22;0.90;;;13.10;89.30;;;;;;5018641;28;20053;-71
2021/05/22 07:08:10;;;;;;;3.58;1.17;;;13.20;84.50;;;;;;5018314;28;20038;-71
2021/05/22 07:10:36;;;;;;;4.13;0.90;;;13.20;87.00;;;;;;5018568;28;20022;-71
2021/05/22 07:13:03;;;;;;;3.88;1.02;;;13.20;86.90;;;;;;5018579;28;20087;-71
2021/05/22 07:15:29;;;;;;;5.05;1.20;;;13.40;85.50;;;;;;5018450;28;20338;-71
2021/05/22 07:17:55;;;;;;;5.63;1.00;;;13.50;85.20;;;;;;5018109;28;20034;-71
2021/05/22 07:20:20;;;;;;;3.28;0.77;;;13.50;82.00;;;;;;5018294;28;20022;-71
2021/05/22 07:22:50;;;;;;;5.35;1.10;;;13.50;82.90;;;;;;5018385;28;20030;-71
2021/05/22 07:25:16;;;;;;;5.07;0.73;;;13.60;83.40;;;;;;5017846;28;20022;-71
2021/05/22 07:27:42;;;;;;;9.05;1.58;;;13.70;86.60;;;;;;5018325;28;20323;-71
2021/05/22 07:30:10;;;;;;;6.28;1.00;;;13.70;85.80;;;;;;5017763;28;20053;-71
2021/05/22 07:32:38;;;;;;;5.43;0.90;;;13.80;83.50;;;;;;5018229;28;20057;-71
2021/05/22 07:35:05;;;;;;;3.13;1.40;;;13.80;84.60;;;;;;5017775;28;20418;-71
2021/05/22 07:37:32;;;;;;;4.95;1.02;;;13.80;86.80;;;;;;5018010;28;20030;-71
2021/05/22 07:39:57;;;;;;;5.05;1.05;;;13.90;85.20;;;;;;5018062;28;20064;-71
2021/05/22 07:42:25;;;;;;;2.60;0.80;;;14.00;85.50;;;;;;5018057;28;20284;-71
2021/05/22 07:44:57;;;;;;;3.47;1.00;;;14.10;85.10;;;;;;5017571;28;20022;-71
2021/05/22 07:47:22;;;;;;;4.22;1.23;;;14.10;84.00;;;;;;5017997;28;20322;-71
2021/05/22 07:49:50;;;;;;;3.35;0.80;;;14.20;85.10;;;;;;5017913;28;20028;-71
2021/05/22 07:52:16;;;;;;;4.63;1.00;;;14.30;81.50;;;;;;5017618;28;20033;-71
2021/05/22 07:54:42;;;;;;;4.20;0.95;;;14.40;82.90;;;;;;5017583;28;20030;-71
2021/05/22 07:57:09;;;;;;;9.35;1.38;;;14.40;82.80;;;;;;5017697;28;20038;-71
2021/05/22 07:59:36;;;;;;;5.70;1.10;;;14.50;81.80;;;;;;5017757;28;20022;-71
2021/05/22 08:02:03;;;;;;;7.53;1.20;;;14.50;76.10;;;;;;5017378;28;20117;-71
2021/05/22 08:04:28;;;;;;;4.82;0.90;;;14.50;78.00;;;;;;5017346;28;20025;-71
2021/05/22 08:06:54;;;;;;;6.72;0.80;;;14.40;81.70;;;;;;5017319;28;20037;-71
2021/05/22 08:09:20;;;;;;;3.25;0.82;;;14.40;79.50;;;;;;5017288;28;20080;-71
2021/05/22 08:11:46;;;;;;;3.38;0.77;;;14.50;82.20;;;;;;5017566;28;20025;-71
2021/05/22 08:14:12;;;;;;;8.77;1.10;;;14.50;83.30;;;;;;5017192;28;20368;-71
2021/05/22 08:16:38;;;;;;;4.68;1.10;;;14.60;81.10;;;;;;5017430;28;20030;-71
2021/05/22 08:19:06;;;;;;;5.45;1.27;;;14.70;82.50;;;;;;5017125;28;20091;-71
2021/05/22 08:21:33;;;;;;;6.60;1.00;;;14.80;80.60;;;;;;5017374;28;20366;-71
2021/05/22 08:23:59;;;;;;;9.52;2.35;;;15.00;80.80;;;;;;5017012;28;20049;-71
2021/05/22 08:26:25;;;;;;;5.05;1.05;;;15.10;77.30;;;;;;5017564;28;20410;-71
2021/05/22 08:28:52;;;;;;;5.85;1.40;;;15.30;79.00;;;;;;5016825;28;20060;-71
2021/05/22 08:31:18;;;;;;;4.45;0.90;;;15.40;80.30;;;;;;5016961;28;20326;-71
2021/05/22 08:33:45;;;;;;;5.18;1.05;;;15.60;78.90;;;;;;5016962;28;20025;-71
2021/05/22 08:36:11;;;;;;;8.38;1.33;;;15.70;76.50;;;;;;5016242;28;20033;-71
2021/05/22 08:38:37;;;;;;;5.88;1.00;;;15.80;76.90;;;;;;5017242;28;20022;-71
2021/05/22 08:41:05;;;;;;;4.82;1.05;;;15.80;79.50;;;;;;5016860;28;20109;-71
2021/05/22 08:43:30;;;;;;;11.32;1.20;;;16.00;74.90;;;;;;5017180;28;20076;-71
2021/05/22 08:45:56;;;;;;;5.57;1.17;;;16.10;72.80;;;;;;5017087;28;20029;-71
2021/05/22 08:48:22;;;;;;;5.55;1.17;;;16.20;74.30;;;;;;5017157;28;20030;-71
2021/05/22 08:50:48;;;;;;;5.60;1.45;;;16.40;73.80;;;;;;5016817;28;20313;-71
2021/05/22 08:53:14;;;;;;;4.95;1.58;;;16.50;74.70;;;;;;5016829;28;20441;-71
2021/05/22 08:55:40;;;;;;;3.90;1.30;;;16.70;78.20;;;;;;5016988;28;20057;-71
2021/05/22 08:58:06;;;;;;;5.03;1.45;;;16.70;76.20;;;;;;5016683;28;20037;-71
2021/05/22 09:00:39;;;;;;;3.85;1.23;;;16.70;78.90;;;;;;5017030;28;20322;-71
2021/05/22 09:03:10;;;;;;;4.45;1.20;;;16.70;76.70;;;;;;5016593;28;20033;-71
2021/05/22 09:05:36;;;;;;;8.48;0.98;;;16.80;74.10;;;;;;5016512;28;20064;-71
2021/05/22 09:08:05;;;;;;;4.35;1.10;;;16.70;73.80;;;;;;5016637;28;20495;-71
2021/05/22 09:10:36;;;;;;;5.80;1.05;;;16.60;73.40;;;;;;5016909;28;20321;-71
2021/05/22 09:13:07;;;;;;;8.98;1.85;;;16.40;73.30;;;;;;5016627;28;20160;-71
2021/05/22 09:15:35;;;;;;;7.25;1.40;;;16.20;73.20;;;;;;5016532;28;20030;-71
2021/05/22 09:18:03;;;;;;;3.75;1.20;;;16.10;75.50;;;;;;5016463;28;20030;-71
2021/05/22 09:20:38;;;;;;;4.35;1.48;;;16.10;74.40;;;;;;5016498;28;20164;-71
2021/05/22 09:23:11;;;;;;;4.55;2.00;;;16.10;76.80;;;;;;5016513;28;20423;-71
2021/05/22 09:25:54;;;;;;;6.90;2.20;;;16.30;77.40;;;;;;5016792;28;20028;-71
2021/05/22 09:28:29;;;;;;;5.82;2.13;;;16.40;78.80;;;;;;5016283;28;20046;-71
2021/05/22 09:30:57;;;;;;;8.13;2.20;;;16.60;79.00;;;;;;5016782;28;20030;-71
2021/05/22 09:33:31;;;;;;;6.28;2.58;;;16.50;74.80;;;;;;5016429;28;20326;-71
2021/05/22 09:35:59;;;;;;;7.15;1.75;;;16.50;74.80;;;;;;5016256;28;20026;-71
2021/05/22 09:38:35;;;;;;;5.22;1.38;;;16.50;77.00;;;;;;5016568;28;20029;-71
2021/05/22 09:41:28;;;;;;;6.40;1.73;;;16.50;77.50;;;;;;5016352;28;20025;-71
2021/05/22 09:44:06;;;;;;;9.30;1.73;;;16.70;76.30;;;;;;5016563;28;20123;-71
2021/05/22 09:46:33;;;;;;;6.15;2.13;;;16.60;77.10;;;;;;5016654;28;20018;-71
2021/05/22 09:49:04;;;;;;;8.05;2.20;;;16.50;77.90;;;;;;5018015;28;20038;-71
2021/05/22 09:51:30;;;;;;;7.97;1.60;;;16.80;76.50;;;;;;5020130;28;20030;-71
2021/05/22 09:53:55;;;;;;;4.10;1.50;;;17.10;76.40;;;;;;5019750;28;20038;-72
2021/05/22 09:56:26;;;;;;;7.95;1.40;;;17.40;76.50;;;;;;5019594;28;20080;-71
2021/05/22 09:58:55;;;;;;;5.97;1.60;;;17.60;72.40;;;;;;5019971;28;20030;-71
2021/05/22 10:01:25;;;;;;;5.03;1.10;;;17.60;74.00;;;;;;5019570;28;20030;-71
2021/05/22 10:03:51;;;;;;;4.47;1.50;;;17.70;74.70;;;;;;5019947;28;20022;-71
2021/05/22 10:06:17;;;;;;;6.28;1.30;;;17.80;72.50;;;;;;5019882;28;20110;-71
2021/05/22 10:08:43;;;;;;;4.80;1.60;;;18.00;73.30;;;;;;5019789;28;20071;-71
2021/05/22 10:11:09;;;;;;;5.57;1.25;;;18.50;71.90;;;;;;5019397;28;20334;-71
2021/05/22 10:13:36;;;;;;;6.25;1.60;;;19.20;71.10;;;;;;5019775;28;20022;-72
2021/05/22 10:16:05;;;;;;;4.88;1.35;;;19.40;69.50;;;;;;5021974;28;20380;-72
2021/05/22 10:18:31;;;;;;;5.00;1.15;;;19.40;65.00;;;;;;5028186;28;20026;-71
2021/05/22 10:21:00;;;;;;;6.88;1.73;;;19.60;68.50;;;;;;5019235;28;20049;-71
2021/05/22 10:23:26;;;;;;;3.38;1.15;;;19.60;67.90;;;;;;5019584;28;20026;-72
2021/05/22 10:25:56;;;;;;;6.32;2.00;;;20.10;69.00;;;;;;5019425;28;20405;-72
2021/05/22 10:28:23;;;;;;;7.32;1.35;;;20.00;67.80;;;;;;5018983;28;20478;-72
2021/05/22 10:30:49;;;;;;;4.28;1.33;;;19.90;67.50;;;;;;5019105;28;20104;-72
2021/05/22 10:33:16;;;;;;;4.82;1.08;;;20.50;66.90;;;;;;5019050;28;20034;-72
2021/05/22 10:35:56;;;;;;;4.93;1.10;;;20.20;65.40;;;;;;5019177;28;20026;-72
2021/05/22 10:38:34;;;;;;;7.13;1.10;;;20.00;67.00;;;;;;5018874;28;20414;-72
2021/05/22 10:41:15;;;;;;;3.38;1.13;;;19.50;64.60;;;;;;5019150;28;20108;-72
2021/05/22 10:43:45;;;;;;;4.47;1.02;;;19.10;68.20;;;;;;5034354;28;20314;-71
2021/05/22 10:46:12;;;;;;;8.85;1.23;;;19.00;67.40;;;;;;5019018;28;20149;-72
2021/05/22 10:48:38;;;;;;;3.90;1.10;;;18.90;68.50;;;;;;5019008;28;20029;-72
2021/05/22 10:51:05;;;;;;;5.75;1.10;;;18.70;69.70;;;;;;5018955;28;20030;-71
2021/05/22 10:53:37;;;;;;;4.40;0.95;;;18.50;66.50;;;;;;5018686;28;20441;-71
2021/05/22 10:56:13;;;;;;;4.38;0.80;;;18.00;67.00;;;;;;5018918;28;20037;-72
2021/05/22 10:59:00;;;;;;;4.65;1.00;;;17.70;69.20;;;;;;5018595;28;20038;-71
2021/05/22 11:01:26;;;;;;;6.22;1.25;;;17.50;70.80;;;;;;5018368;28;20368;-71
2021/05/22 11:04:11;;;;;;;5.05;1.33;;;17.30;71.30;;;;;;5018404;28;20029;-71
2021/05/22 11:06:51;;;;;;;3.55;1.20;;;17.10;72.10;;;;;;5019007;28;20034;-71
2021/05/22 11:11:59;;;;;;;5.95;1.80;;;17.00;76.70;;;;;;5018636;28;20112;-71
2021/05/22 11:14:35;;;;;;;6.82;1.58;;;17.00;76.80;;;;;;5018217;28;20041;-72
2021/05/22 11:17:19;;;;;;;9.68;2.22;;;16.90;78.20;;;;;;5018071;28;20026;-71
2021/05/22 11:20:00;;;;;;;7.82;1.70;;;16.80;76.90;;;;;;5018210;28;20041;-71
2021/05/22 11:22:54;;;;;;;6.78;1.67;;;16.80;79.30;;;;;;5018449;28;20041;-71
2021/05/22 11:25:20;;;;;;;8.70;2.30;;;16.80;77.10;;;;;;5017958;28;20058;-71
2021/05/22 11:28:03;;;;;;;7.50;1.88;;;16.70;77.20;;;;;;5018357;28;20033;-71
2021/05/22 11:30:38;;;;;;;6.05;1.73;;;16.70;77.20;;;;;;5017748;28;20462;-71
2021/05/22 11:33:10;;;;;;;9.52;1.60;;;16.90;78.60;;;;;;5017915;28;20062;-71
2021/05/22 11:35:44;;;;;;;8.60;2.00;;;17.30;77.20;;;;;;5018118;28;20041;-71
2021/05/22 11:38:13;;;;;;;7.10;2.53;;;18.10;78.80;;;;;;5017738;28;20105;-71
2021/05/22 11:40:39;;;;;;;7.90;2.30;;;18.80;74.70;;;;;;5018091;28;20045;-71
2021/05/22 11:43:14;;;;;;;6.00;1.45;;;19.10;70.80;;;;;;5017810;28;20410;-71
2021/05/22 11:45:39;;;;;;;5.63;1.17;;;19.10;73.80;;;;;;5017981;28;20374;-72
2021/05/22 11:48:30;;;;;;;4.57;1.45;;;19.00;72.50;;;;;;5017975;28;20030;-72
2021/05/22 11:51:10;;;;;;;10.68;1.92;;;18.80;68.50;;;;;;5017922;28;20024;-71
2021/05/22 11:53:37;;;;;;;5.97;1.48;;;18.70;69.50;;;;;;5017923;28;20041;-72
2021/05/22 11:56:12;;;;;;;6.78;1.92;;;18.70;69.60;;;;;;5017837;28;20033;-72
2021/05/22 11:58:39;;;;;;;7.30;1.73;;;18.50;71.10;;;;;;5017506;28;20065;-72
2021/05/22 12:01:26;;;;;;;6.63;1.25;;;18.40;71.50;;;;;;5017400;28;20022;-71
2021/05/22 12:04:00;;;;;;;4.60;1.23;;;18.20;72.50;;;;;;5017741;28;20026;-72
2021/05/22 12:06:28;;;;;;;6.55;1.55;;;18.10;72.00;;;;;;5017727;28;20326;-71
2021/05/22 12:09:04;;;;;;;6.65;2.03;;;17.90;72.70;;;;;;5017349;28;20034;-72
2021/05/22 12:11:32;;;;;;;9.13;1.70;;;17.80;72.50;;;;;;5016939;28;20038;-71
2021/05/22 12:14:04;;;;;;;4.50;1.40;;;17.70;74.00;;;;;;5017562;28;20034;-72
2021/05/22 12:16:31;;;;;;;5.65;1.65;;;17.50;75.00;;;;;;5017424;28;20076;-71
2021/05/22 12:18:56;;;;;;;6.55;1.63;;;17.20;73.40;;;;;;5017483;28;20318;-72
2021/05/22 12:21:32;;;;;;;6.60;1.25;;;17.10;74.40;;;;;;5017418;28;20063;-71
2021/05/22 12:24:09;;;;;;;;;;;17.10;77.40;;;;;;5017798;28;20026;-71
2021/05/22 12:26:39;;;;;;;4.72;1.13;;;17.30;78.40;;;;;;5017059;28;19913;-71
2021/05/22 12:29:08;;;;;;;3.67;1.15;;;17.50;76.60;;;;;;5016798;28;20941;-72
2021/05/22 12:31:35;;;;;;;5.55;1.40;;;17.60;78.40;;;;;;5017277;28;20030;-72
2021/05/22 12:34:03;;;;;;;6.80;2.20;;;17.80;77.30;;;;;;5017253;28;20325;-72
2021/05/22 12:36:30;;;;;;;7.43;1.60;;;18.20;75.90;;;;;;5016745;28;20022;-71
2021/05/22 12:38:56;;;;;;;8.07;1.75;;;18.50;73.60;;;;;;5016917;28;20021;-71
2021/05/22 12:41:36;;;;;;;7.97;1.63;;;18.60;71.60;;;;;;5016865;28;20026;-72
2021/05/22 12:44:03;;;;;;;4.43;1.38;;;18.70;72.40;;;;;;5016874;28;20029;-72
2021/05/22 12:46:33;;;;;;;5.53;1.42;;;18.40;72.50;;;;;;5016859;28;20076;-72
2021/05/22 12:49:19;;;;;;;8.85;1.70;;;18.40;74.40;;;;;;5016818;28;20425;-71
2021/05/22 12:51:46;;;;;;;;;;;18.40;73.70;;;;;;5017240;28;20037;-71
2021/05/22 12:54:31;;;;;;;8.52;1.77;;;18.20;72.90;;;;;;5016955;28;19906;-72
2021/05/22 12:57:09;;;;;;;9.10;1.92;;;18.00;75.20;;;;;;5017057;28;20081;-71
2021/05/22 12:59:37;;;;;;;5.32;1.95;;;17.80;72.90;;;;;;5016719;28;20040;-71